sensor_id;sensor_type;location;lat;lon;timestamp;pressure;altitude;pressure_sealevel;temperature;humidity
61506;BME280;47366;51.916;4.574;2023-07-31T07:52:04;100768.38;;;17.06;100.00
61506;BME280;47366;51.916;4.574;2023-07-31T07:54:30;100763.53;;;17.10;100.00
61506;BME280;47366;51.916;4.574;2023-07-31T07:56:56;100751.56;;;17.11;100.00
61506;BME280;47366;51.916;4.574;2023-07-31T07:59:21;100755.47;;;17.18;100.00
61506;BME280;47366;51.916;4.574;2023-07-31T08:01:46;100753.16;;;17.23;100.00
61506;BME280;47366;51.916;4.574;2023-07-31T08:04:12;100741.81;;;17.28;100.00
61506;BME280;47366;51.916;4.574;2023-07-31T08:06:38;100741.38;;;17.32;100.00
61506;BME280;47366;51.916;4.574;2023-07-31T08:09:03;100740.94;;;17.27;100.00
61506;BME280;47366;51.916;4.574;2023-07-31T08:11:32;100748.72;;;17.32;100.00
61506;BME280;47366;51.916;4.574;2023-07-31T08:13:57;100743.53;;;17.29;100.00
61506;BME280;47366;51.916;4.574;2023-07-31T08:16:23;100742.81;;;17.27;100.00
61506;BME280;47366;51.916;4.574;2023-07-31T08:18:48;100734.00;;;17.23;100.00
61506;BME280;47366;51.916;4.574;2023-07-31T08:21:14;100739.66;;;17.31;100.00
61506;BME280;47366;51.916;4.574;2023-07-31T08:23:40;100747.16;;;17.29;100.00
61506;BME280;47366;51.916;4.574;2023-07-31T08:26:05;100749.75;;;17.31;100.00
61506;BME280;47366;51.916;4.574;2023-07-31T08:28:31;100730.59;;;17.31;100.00
61506;BME280;47366;51.916;4.574;2023-07-31T08:30:56;100730.44;;;17.32;100.00
61506;BME280;47366;51.916;4.574;2023-07-31T08:33:21;100740.69;;;17.40;100.00
61506;BME280;47366;51.916;4.574;2023-07-31T08:35:47;100740.25;;;17.45;100.00
61506;BME280;47366;51.916;4.574;2023-07-31T08:38:12;100740.13;;;17.46;100.00
61506;BME280;47366;51.916;4.574;2023-07-31T08:40:38;100736.66;;;17.54;100.00
61506;BME280;47366;51.916;4.574;2023-07-31T08:43:03;100739.41;;;17.54;100.00
61506;BME280;47366;51.916;4.574;2023-07-31T08:45:30;100729.16;;;17.46;100.00
61506;BME280;47366;51.916;4.574;2023-07-31T08:47:56;100744.88;;;17.54;100.00
61506;BME280;47366;51.916;4.574;2023-07-31T08:50:23;100733.47;;;17.49;100.00
61506;BME280;47366;51.916;4.574;2023-07-31T08:52:49;100738.66;;;17.52;100.00
61506;BME280;47366;51.916;4.574;2023-07-31T08:55:15;100743.16;;;17.53;100.00
61506;BME280;47366;51.916;4.574;2023-07-31T08:57:42;100743.88;;;17.55;100.00
61506;BME280;47366;51.916;4.574;2023-07-31T09:00:10;100748.03;;;17.59;100.00
61506;BME280;47366;51.916;4.574;2023-07-31T09:02:46;100730.31;;;17.53;100.00
61506;BME280;47366;51.916;4.574;2023-07-31T09:05:14;100744.88;;;17.54;100.00
61506;BME280;47366;51.916;4.574;2023-07-31T09:07:40;100736.94;;;17.51;100.00
61506;BME280;47366;51.916;4.574;2023-07-31T09:10:07;100742.00;;;17.55;100.00
61506;BME280;47366;51.916;4.574;2023-07-31T09:12:32;100726.13;;;17.59;100.00
61506;BME280;47366;51.916;4.574;2023-07-31T09:14:58;100733.78;;;17.65;100.00
61506;BME280;47366;51.916;4.574;2023-07-31T09:17:34;100731.06;;;17.75;100.00
61506;BME280;47366;51.916;4.574;2023-07-31T09:20:20;100722.31;;;17.81;100.00
61506;BME280;47366;51.916;4.574;2023-07-31T09:22:46;100732.97;;;17.84;100.00
61506;BME280;47366;51.916;4.574;2023-07-31T09:25:16;100738.31;;;17.86;100.00
61506;BME280;47366;51.916;4.574;2023-07-31T09:27:54;100733.81;;;17.85;100.00
61506;BME280;47366;51.916;4.574;2023-07-31T09:30:20;100720.84;;;17.87;100.00
61506;BME280;47366;51.916;4.574;2023-07-31T09:32:47;100735.28;;;17.89;100.00
61506;BME280;47366;51.916;4.574;2023-07-31T09:35:20;100722.00;;;17.84;100.00
61506;BME280;47366;51.916;4.574;2023-07-31T09:37:50;100737.44;;;17.85;100.00
61506;BME280;47366;51.916;4.574;2023-07-31T09:40:36;100723.47;;;17.88;100.00
61506;BME280;47366;51.916;4.574;2023-07-31T09:43:04;100716.81;;;17.91;100.00
61506;BME280;47366;51.916;4.574;2023-07-31T09:45:30;100712.78;;;17.95;100.00
61506;BME280;47366;51.916;4.574;2023-07-31T09:47:56;100714.94;;;17.91;100.00
61506;BME280;47366;51.916;4.574;2023-07-31T09:50:23;100707.31;;;17.95;100.00
61506;BME280;47366;51.916;4.574;2023-07-31T09:52:49;100726.50;;;17.95;100.00
61506;BME280;47366;51.916;4.574;2023-07-31T09:55:15;100722.41;;;17.99;100.00
61506;BME280;47366;51.916;4.574;2023-07-31T09:57:44;100726.19;;;17.98;100.00
61506;BME280;47366;51.916;4.574;2023-07-31T10:00:11;100719.13;;;17.95;100.00
61506;BME280;47366;51.916;4.574;2023-07-31T10:02:37;100714.81;;;17.93;100.00
61506;BME280;47366;51.916;4.574;2023-07-31T10:05:04;100716.50;;;17.94;100.00
61506;BME280;47366;51.916;4.574;2023-07-31T10:07:31;100717.97;;;17.98;100.00
61506;BME280;47366;51.916;4.574;2023-07-31T10:09:59;100717.97;;;17.98;100.00
61506;BME280;47366;51.916;4.574;2023-07-31T10:12:26;100710.31;;;17.92;100.00
61506;BME280;47366;51.916;4.574;2023-07-31T10:14:55;100719.25;;;17.94;100.00
61506;BME280;47366;51.916;4.574;2023-07-31T10:17:24;100718.25;;;17.95;100.00
61506;BME280;47366;51.916;4.574;2023-07-31T10:19:50;100715.53;;;17.95;100.00
61506;BME280;47366;51.916;4.574;2023-07-31T10:22:16;100724.59;;;17.95;100.00
61506;BME280;47366;51.916;4.574;2023-07-31T10:24:45;100721.28;;;17.92;100.00
61506;BME280;47366;51.916;4.574;2023-07-31T10:27:10;100727.91;;;17.89;100.00
61506;BME280;47366;51.916;4.574;2023-07-31T10:29:40;100729.50;;;17.92;100.00
61506;BME280;47366;51.916;4.574;2023-07-31T10:32:10;100734.53;;;17.96;100.00
61506;BME280;47366;51.916;4.574;2023-07-31T10:34:39;100724.59;;;17.95;100.00
61506;BME280;47366;51.916;4.574;2023-07-31T10:37:35;100732.97;;;17.94;100.00
61506;BME280;47366;51.916;4.574;2023-07-31T10:40:18;100724.88;;;17.92;100.00
61506;BME280;47366;51.916;4.574;2023-07-31T10:42:50;100720.41;;;17.91;100.00
61506;BME280;47366;51.916;4.574;2023-07-31T10:45:36;100718.25;;;17.95;100.00
61506;BME280;47366;51.916;4.574;2023-07-31T10:48:03;100725.88;;;18.01;100.00
61506;BME280;47366;51.916;4.574;2023-07-31T10:50:30;100724.16;;;18.00;100.00
61506;BME280;47366;51.916;4.574;2023-07-31T10:52:58;100710.72;;;17.97;100.00
61506;BME280;47366;51.916;4.574;2023-07-31T10:57:55;100709.56;;;17.99;100.00
61506;BME280;47366;51.916;4.574;2023-07-31T11:00:28;100718.94;;;18.07;100.00
61506;BME280;47366;51.916;4.574;2023-07-31T11:05:47;100704.94;;;18.19;100.00
61506;BME280;47366;51.916;4.574;2023-07-31T11:08:27;100705.38;;;18.24;100.00
61506;BME280;47366;51.916;4.574;2023-07-31T11:13:48;100688.59;;;18.28;100.00
61506;BME280;47366;51.916;4.574;2023-07-31T11:16:22;100694.09;;;18.28;100.00
61506;BME280;47366;51.916;4.574;2023-07-31T11:18:48;100691.34;;;18.28;100.00
61506;BME280;47366;51.916;4.574;2023-07-31T11:21:22;100685.41;;;18.32;100.00
61506;BME280;47366;51.916;4.574;2023-07-31T11:23:52;100682.13;;;18.29;100.00
61506;BME280;47366;51.916;4.574;2023-07-31T11:26:18;100675.94;;;18.27;100.00
61506;BME280;47366;51.916;4.574;2023-07-31T11:28:47;100686.44;;;18.31;100.00
61506;BME280;47366;51.916;4.574;2023-07-31T11:31:13;100687.31;;;18.32;100.00
61506;BME280;47366;51.916;4.574;2023-07-31T11:33:38;100689.31;;;18.30;100.00
61506;BME280;47366;51.916;4.574;2023-07-31T11:36:04;100685.88;;;18.28;100.00
61506;BME280;47366;51.916;4.574;2023-07-31T11:38:31;100680.38;;;18.28;100.00
61506;BME280;47366;51.916;4.574;2023-07-31T11:40:59;100687.44;;;18.30;100.00
61506;BME280;47366;51.916;4.574;2023-07-31T11:43:25;100686.13;;;18.34;100.00
61506;BME280;47366;51.916;4.574;2023-07-31T11:45:55;100689.75;;;18.35;100.00
61506;BME280;47366;51.916;4.574;2023-07-31T11:48:26;100692.47;;;18.35;100.00
61506;BME280;47366;51.916;4.574;2023-07-31T11:50:57;100695.53;;;18.32;100.00
61506;BME280;47366;51.916;4.574;2023-07-31T11:56:04;100715.16;;;18.37;100.00
61506;BME280;47366;51.916;4.574;2023-07-31T11:58:32;100704.16;;;18.37;100.00
61506;BME280;47366;51.916;4.574;2023-07-31T12:00:59;100695.94;;;18.37;100.00
61506;BME280;47366;51.916;4.574;2023-07-31T12:03:25;100684.53;;;18.41;100.00
61506;BME280;47366;51.916;4.574;2023-07-31T12:05:52;100676.16;;;18.43;100.00
61506;BME280;47366;51.916;4.574;2023-07-31T12:08:21;100678.59;;;18.46;100.00
61506;BME280;47366;51.916;4.574;2023-07-31T12:10:47;100667.34;;;18.39;100.00
61506;BME280;47366;51.916;4.574;2023-07-31T12:13:25;100678.59;;;18.46;100.00
61506;BME280;47366;51.916;4.574;2023-07-31T12:15:56;100671.94;;;18.49;100.00
61506;BME280;47366;51.916;4.574;2023-07-31T12:18:24;100674.66;;;18.58;100.00
61506;BME280;47366;51.916;4.574;2023-07-31T12:20:55;100665.97;;;18.63;100.00
61506;BME280;47366;51.916;4.574;2023-07-31T12:26:09;100656.88;;;18.62;100.00
61506;BME280;47366;51.916;4.574;2023-07-31T12:28:43;100656.31;;;18.59;100.00
61506;BME280;47366;51.916;4.574;2023-07-31T12:31:10;100651.13;;;18.56;100.00
61506;BME280;47366;51.916;4.574;2023-07-31T12:33:37;100660.34;;;18.64;100.00
61506;BME280;47366;51.916;4.574;2023-07-31T12:36:08;100650.94;;;18.67;100.00
61506;BME280;47366;51.916;4.574;2023-07-31T12:38:34;100653.09;;;18.63;100.00
61506;BME280;47366;51.916;4.574;2023-07-31T12:40:59;100651.84;;;18.58;100.00
61506;BME280;47366;51.916;4.574;2023-07-31T12:43:25;100648.38;;;18.56;100.00
61506;BME280;47366;51.916;4.574;2023-07-31T12:45:50;100635.84;;;18.53;100.00
61506;BME280;47366;51.916;4.574;2023-07-31T12:48:16;100638.56;;;18.53;100.00
61506;BME280;47366;51.916;4.574;2023-07-31T12:50:41;100645.22;;;18.51;100.00
61506;BME280;47366;51.916;4.574;2023-07-31T12:53:07;100657.78;;;18.53;100.00
61506;BME280;47366;51.916;4.574;2023-07-31T12:55:33;100659.34;;;18.56;100.00
61506;BME280;47366;51.916;4.574;2023-07-31T12:58:00;100648.53;;;18.54;100.00
61506;BME280;47366;51.916;4.574;2023-07-31T13:00:26;100633.09;;;18.53;100.00
61506;BME280;47366;51.916;4.574;2023-07-31T13:02:51;100636.97;;;18.60;100.00
61506;BME280;47366;51.916;4.574;2023-07-31T13:05:16;100634.06;;;18.62;100.00
61506;BME280;47366;51.916;4.574;2023-07-31T13:07:42;100634.78;;;18.64;100.00
61506;BME280;47366;51.916;4.574;2023-07-31T13:10:08;100635.66;;;18.64;100.00
61506;BME280;47366;51.916;4.574;2023-07-31T13:12:34;100623.66;;;18.65;100.00
61506;BME280;47366;51.916;4.574;2023-07-31T13:14:59;100625.38;;;18.66;100.00
61506;BME280;47366;51.916;4.574;2023-07-31T13:17:24;100615.28;;;18.67;100.00
61506;BME280;47366;51.916;4.574;2023-07-31T13:19:50;100612.59;;;18.75;100.00
61506;BME280;47366;51.916;4.574;2023-07-31T13:22:15;100621.88;;;18.74;100.00
61506;BME280;47366;51.916;4.574;2023-07-31T13:24:41;100622.19;;;18.71;100.00
61506;BME280;47366;51.916;4.574;2023-07-31T13:27:06;100624.03;;;18.71;100.00
61506;BME280;47366;51.916;4.574;2023-07-31T13:29:31;100616.09;;;18.77;100.00
61506;BME280;47366;51.916;4.574;2023-07-31T13:31:57;100616.22;;;18.76;100.00
61506;BME280;47366;51.916;4.574;2023-07-31T13:34:22;100608.16;;;18.74;100.00
61506;BME280;47366;51.916;4.574;2023-07-31T13:36:48;100595.88;;;18.68;100.00
61506;BME280;47366;51.916;4.574;2023-07-31T13:39:13;100600.53;;;18.68;100.00
61506;BME280;47366;51.916;4.574;2023-07-31T13:41:38;100603.13;;;18.70;100.00
61506;BME280;47366;51.916;4.574;2023-07-31T13:44:04;100607.03;;;18.67;100.00
61506;BME280;47366;51.916;4.574;2023-07-31T13:46:29;100599.41;;;18.61;100.00
61506;BME280;47366;51.916;4.574;2023-07-31T13:48:55;100593.38;;;18.57;100.00
61506;BME280;47366;51.916;4.574;2023-07-31T13:51:21;100596.41;;;18.54;100.00
61506;BME280;47366;51.916;4.574;2023-07-31T13:53:47;100601.75;;;18.56;100.00
61506;BME280;47366;51.916;4.574;2023-07-31T13:56:12;100602.91;;;18.53;100.00
61506;BME280;47366;51.916;4.574;2023-07-31T13:58:37;100607.22;;;18.56;100.00
61506;BME280;47366;51.916;4.574;2023-07-31T14:01:04;100604.19;;;18.59;100.00
61506;BME280;47366;51.916;4.574;2023-07-31T14:03:30;100592.53;;;18.57;100.00
61506;BME280;47366;51.916;4.574;2023-07-31T14:05:55;100593.50;;;18.56;100.00
61506;BME280;47366;51.916;4.574;2023-07-31T14:08:21;100600.50;;;18.50;100.00
61506;BME280;47366;51.916;4.574;2023-07-31T14:10:47;100585.91;;;18.50;100.00
61506;BME280;47366;51.916;4.574;2023-07-31T14:13:12;100579.53;;;18.49;100.00
61506;BME280;47366;51.916;4.574;2023-07-31T14:15:37;100569.59;;;18.48;100.00
61506;BME280;47366;51.916;4.574;2023-07-31T14:18:03;100567.72;;;18.49;100.00
61506;BME280;47366;51.916;4.574;2023-07-31T14:20:29;100570.91;;;18.44;100.00
61506;BME280;47366;51.916;4.574;2023-07-31T14:22:54;100571.63;;;18.46;100.00
61506;BME280;47366;51.916;4.574;2023-07-31T14:25:20;100572.66;;;18.45;100.00
61506;BME280;47366;51.916;4.574;2023-07-31T14:27:46;100564.88;;;18.40;100.00
61506;BME280;47366;51.916;4.574;2023-07-31T14:30:11;100564.72;;;18.42;100.00
61506;BME280;47366;51.916;4.574;2023-07-31T14:32:36;100554.44;;;18.44;100.00
61506;BME280;47366;51.916;4.574;2023-07-31T14:35:03;100554.31;;;18.45;100.00
61506;BME280;47366;51.916;4.574;2023-07-31T14:37:37;100554.78;;;18.41;100.00
61506;BME280;47366;51.916;4.574;2023-07-31T14:40:03;100555.31;;;18.44;100.00
61506;BME280;47366;51.916;4.574;2023-07-31T14:42:28;100547.97;;;18.45;100.00
61506;BME280;47366;51.916;4.574;2023-07-31T14:44:53;100541.19;;;18.39;100.00
61506;BME280;47366;51.916;4.574;2023-07-31T14:47:19;100553.59;;;18.43;100.00
61506;BME280;47366;51.916;4.574;2023-07-31T14:49:44;100536.88;;;18.37;100.00
61506;BME280;47366;51.916;4.574;2023-07-31T14:52:09;100533.28;;;18.36;100.00
61506;BME280;47366;51.916;4.574;2023-07-31T14:54:35;100526.38;;;18.32;100.00
61506;BME280;47366;51.916;4.574;2023-07-31T14:57:01;100528.25;;;18.32;100.00
61506;BME280;47366;51.916;4.574;2023-07-31T14:59:26;100514.16;;;18.27;100.00
61506;BME280;47366;51.916;4.574;2023-07-31T15:01:52;100521.59;;;18.34;100.00
61506;BME280;47366;51.916;4.574;2023-07-31T15:04:17;100510.63;;;18.34;100.00
61506;BME280;47366;51.916;4.574;2023-07-31T15:06:42;100514.69;;;18.30;100.00
61506;BME280;47366;51.916;4.574;2023-07-31T15:09:08;100500.56;;;18.25;100.00
61506;BME280;47366;51.916;4.574;2023-07-31T15:11:33;100502.06;;;18.19;100.00
61506;BME280;47366;51.916;4.574;2023-07-31T15:13:58;100492.66;;;18.22;100.00
61506;BME280;47366;51.916;4.574;2023-07-31T15:16:24;100494.56;;;18.21;100.00
61506;BME280;47366;51.916;4.574;2023-07-31T15:18:49;100485.63;;;18.19;100.00
61506;BME280;47366;51.916;4.574;2023-07-31T15:21:14;100489.06;;;18.21;100.00
61506;BME280;47366;51.916;4.574;2023-07-31T15:23:40;100477.53;;;18.18;100.00
61506;BME280;47366;51.916;4.574;2023-07-31T15:26:05;100478.69;;;18.15;100.00
61506;BME280;47366;51.916;4.574;2023-07-31T15:28:31;100460.41;;;18.06;100.00
61506;BME280;47366;51.916;4.574;2023-07-31T15:30:59;100474.84;;;18.08;100.00
61506;BME280;47366;51.916;4.574;2023-07-31T15:33:25;100465.31;;;18.12;100.00
61506;BME280;47366;51.916;4.574;2023-07-31T15:35:50;100440.25;;;18.07;100.00
61506;BME280;47366;51.916;4.574;2023-07-31T15:38:15;100448.16;;;18.10;100.00
61506;BME280;47366;51.916;4.574;2023-07-31T15:40:41;100459.38;;;18.17;100.00
61506;BME280;47366;51.916;4.574;2023-07-31T15:43:06;100448.69;;;18.14;100.00
61506;BME280;47366;51.916;4.574;2023-07-31T15:45:32;100440.63;;;18.12;100.00
61506;BME280;47366;51.916;4.574;2023-07-31T15:47:57;100448.53;;;18.15;100.00
61506;BME280;47366;51.916;4.574;2023-07-31T15:50:22;100452.13;;;18.16;100.00
61506;BME280;47366;51.916;4.574;2023-07-31T15:52:48;100439.59;;;18.13;100.00
61506;BME280;47366;51.916;4.574;2023-07-31T15:55:13;100439.06;;;18.10;100.00
61506;BME280;47366;51.916;4.574;2023-07-31T15:57:39;100442.34;;;18.13;100.00
61506;BME280;47366;51.916;4.574;2023-07-31T16:00:04;100434.44;;;18.10;100.00
61506;BME280;47366;51.916;4.574;2023-07-31T16:02:30;100455.34;;;18.11;100.00
61506;BME280;47366;51.916;4.574;2023-07-31T16:04:56;100451.03;;;18.09;100.00
61506;BME280;47366;51.916;4.574;2023-07-31T16:07:21;100446.44;;;18.09;100.00
61506;BME280;47366;51.916;4.574;2023-07-31T16:09:48;100449.72;;;18.13;100.00
61506;BME280;47366;51.916;4.574;2023-07-31T16:12:14;100430.00;;;18.09;100.00
61506;BME280;47366;51.916;4.574;2023-07-31T16:14:39;100441.34;;;18.14;100.00
61506;BME280;47366;51.916;4.574;2023-07-31T16:17:04;100431.84;;;18.09;100.00
61506;BME280;47366;51.916;4.574;2023-07-31T16:19:30;100419.69;;;18.11;100.00
61506;BME280;47366;51.916;4.574;2023-07-31T16:21:56;100422.91;;;18.07;100.00
61506;BME280;47366;51.916;4.574;2023-07-31T16:24:21;100423.47;;;18.10;100.00
61506;BME280;47366;51.916;4.574;2023-07-31T16:26:47;100418.31;;;18.07;100.00
61506;BME280;47366;51.916;4.574;2023-07-31T16:29:12;100427.06;;;18.11;100.00
61506;BME280;47366;51.916;4.574;2023-07-31T16:31:37;100417.69;;;18.13;100.00
61506;BME280;47366;51.916;4.574;2023-07-31T16:34:03;100408.06;;;18.09;100.00
61506;BME280;47366;51.916;4.574;2023-07-31T16:36:28;100395.59;;;18.15;100.00
61506;BME280;47366;51.916;4.574;2023-07-31T16:38:54;100391.69;;;18.17;100.00
61506;BME280;47366;51.916;4.574;2023-07-31T16:41:20;100391.22;;;18.22;100.00
61506;BME280;47366;51.916;4.574;2023-07-31T16:43:46;100403.75;;;18.24;100.00
61506;BME280;47366;51.916;4.574;2023-07-31T16:46:11;100390.91;;;18.25;100.00
61506;BME280;47366;51.916;4.574;2023-07-31T16:48:36;100404.47;;;18.27;100.00
61506;BME280;47366;51.916;4.574;2023-07-31T16:51:02;100390.03;;;18.24;100.00
61506;BME280;47366;51.916;4.574;2023-07-31T16:53:28;100388.63;;;18.20;100.00
61506;BME280;47366;51.916;4.574;2023-07-31T16:55:54;100388.47;;;18.22;100.00
61506;BME280;47366;51.916;4.574;2023-07-31T16:58:19;100381.81;;;18.24;100.00
61506;BME280;47366;51.916;4.574;2023-07-31T17:00:44;100370.72;;;18.26;100.00
61506;BME280;47366;51.916;4.574;2023-07-31T17:03:10;100356.44;;;18.22;100.00
61506;BME280;47366;51.916;4.574;2023-07-31T17:05:35;100371.56;;;18.27;100.00
61506;BME280;47366;51.916;4.574;2023-07-31T17:08:01;100365.22;;;18.26;100.00
61506;BME280;47366;51.916;4.574;2023-07-31T17:10:26;100345.16;;;18.25;100.00
61506;BME280;47366;51.916;4.574;2023-07-31T17:12:52;100335.53;;;18.21;100.00
61506;BME280;47366;51.916;4.574;2023-07-31T17:15:17;100339.84;;;18.24;100.00
61506;BME280;47366;51.916;4.574;2023-07-31T17:17:42;100328.63;;;18.17;100.00
61506;BME280;47366;51.916;4.574;2023-07-31T17:20:08;100333.50;;;18.23;100.00
61506;BME280;47366;51.916;4.574;2023-07-31T17:22:34;100317.34;;;18.20;100.00
61506;BME280;47366;51.916;4.574;2023-07-31T17:24:59;100323.47;;;18.14;100.00
61506;BME280;47366;51.916;4.574;2023-07-31T17:27:25;100322.44;;;18.15;100.00
61506;BME280;47366;51.916;4.574;2023-07-31T17:29:51;100330.34;;;18.18;100.00
61506;BME280;47366;51.916;4.574;2023-07-31T17:32:17;100321.13;;;18.19;100.00
61506;BME280;47366;51.916;4.574;2023-07-31T17:34:43;100335.28;;;18.15;100.00
61506;BME280;47366;51.916;4.574;2023-07-31T17:37:08;100337.00;;;18.16;100.00
61506;BME280;47366;51.916;4.574;2023-07-31T17:39:34;100349.00;;;18.15;100.00
61506;BME280;47366;51.916;4.574;2023-07-31T17:42:00;100340.91;;;18.13;100.00
61506;BME280;47366;51.916;4.574;2023-07-31T17:44:26;100341.94;;;18.12;100.00
61506;BME280;47366;51.916;4.574;2023-07-31T17:46:51;100346.25;;;18.15;100.00
61506;BME280;47366;51.916;4.574;2023-07-31T17:49:17;100345.78;;;18.19;100.00
61506;BME280;47366;51.916;4.574;2023-07-31T17:51:42;100343.66;;;18.13;100.00
61506;BME280;47366;51.916;4.574;2023-07-31T17:54:07;100360.81;;;18.15;100.00
61506;BME280;47366;51.916;4.574;2023-07-31T17:56:33;100358.47;;;18.20;100.00
61506;BME280;47366;51.916;4.574;2023-07-31T17:59:03;100356.19;;;18.16;100.00
61506;BME280;47366;51.916;4.574;2023-07-31T18:01:28;100355.34;;;18.15;100.00
61506;BME280;47366;51.916;4.574;2023-07-31T18:03:54;100345.69;;;18.11;100.00
61506;BME280;47366;51.916;4.574;2023-07-31T18:06:19;100349.16;;;18.13;100.00
61506;BME280;47366;51.916;4.574;2023-07-31T18:08:44;100325.81;;;18.09;100.00
61506;BME280;47366;51.916;4.574;2023-07-31T18:11:10;100329.44;;;18.10;100.00
61506;BME280;47366;51.916;4.574;2023-07-31T18:13:35;100321.28;;;18.00;100.00
61506;BME280;47366;51.916;4.574;2023-07-31T18:16:00;100352.81;;;18.04;100.00
61506;BME280;47366;51.916;4.574;2023-07-31T18:18:26;100349.41;;;18.02;100.00
61506;BME280;47366;51.916;4.574;2023-07-31T18:20:51;100360.75;;;18.07;100.00
61506;BME280;47366;51.916;4.574;2023-07-31T18:23:16;100351.81;;;18.05;100.00
61506;BME280;47366;51.916;4.574;2023-07-31T18:25:42;100331.91;;;18.03;100.00
61506;BME280;47366;51.916;4.574;2023-07-31T18:28:07;100336.38;;;18.04;100.00
61506;BME280;47366;51.916;4.574;2023-07-31T18:30:33;100324.56;;;18.03;100.00
61506;BME280;47366;51.916;4.574;2023-07-31T18:32:58;100316.34;;;18.03;100.00
61506;BME280;47366;51.916;4.574;2023-07-31T18:35:23;100313.97;;;18.09;100.00
61506;BME280;47366;51.916;4.574;2023-07-31T18:37:49;100313.13;;;18.08;100.00
61506;BME280;47366;51.916;4.574;2023-07-31T18:40:14;100290.81;;;18.03;100.00
61506;BME280;47366;51.916;4.574;2023-07-31T18:42:39;100297.16;;;18.03;100.00
61506;BME280;47366;51.916;4.574;2023-07-31T18:45:05;100290.41;;;17.98;100.00
61506;BME280;47366;51.916;4.574;2023-07-31T18:47:31;100294.72;;;18.00;100.00
61506;BME280;47366;51.916;4.574;2023-07-31T18:49:56;100298.47;;;17.99;100.00
61506;BME280;47366;51.916;4.574;2023-07-31T18:52:22;100297.78;;;17.97;100.00
61506;BME280;47366;51.916;4.574;2023-07-31T18:54:47;100296.22;;;17.95;100.00
61506;BME280;47366;51.916;4.574;2023-07-31T18:57:13;100292.78;;;17.93;100.00
61506;BME280;47366;51.916;4.574;2023-07-31T18:59:38;100302.38;;;17.97;100.00
61506;BME280;47366;51.916;4.574;2023-07-31T19:02:03;100285.56;;;17.92;100.00
61506;BME280;47366;51.916;4.574;2023-07-31T19:04:29;100289.00;;;17.94;100.00
61506;BME280;47366;51.916;4.574;2023-07-31T19:06:54;100289.16;;;17.92;100.00
61506;BME280;47366;51.916;4.574;2023-07-31T19:09:33;100272.78;;;17.82;100.00
61506;BME280;47366;51.916;4.574;2023-07-31T19:12:00;100277.97;;;17.86;100.00
61506;BME280;47366;51.916;4.574;2023-07-31T19:14:26;100262.84;;;17.81;100.00
61506;BME280;47366;51.916;4.574;2023-07-31T19:16:51;100262.09;;;17.79;100.00
61506;BME280;47366;51.916;4.574;2023-07-31T19:19:19;100261.72;;;17.74;100.00
61506;BME280;47366;51.916;4.574;2023-07-31T19:21:45;100267.91;;;17.76;100.00
61506;BME280;47366;51.916;4.574;2023-07-31T19:24:11;100274.38;;;17.75;100.00
61506;BME280;47366;51.916;4.574;2023-07-31T19:26:37;100252.00;;;17.62;100.00
61506;BME280;47366;51.916;4.574;2023-07-31T19:29:03;100264.53;;;17.65;100.00
61506;BME280;47366;51.916;4.574;2023-07-31T19:31:28;100260.50;;;17.59;100.00
61506;BME280;47366;51.916;4.574;2023-07-31T19:33:54;100250.91;;;17.55;100.00
61506;BME280;47366;51.916;4.574;2023-07-31T19:36:19;100262.16;;;17.52;100.00
61506;BME280;47366;51.916;4.574;2023-07-31T19:38:45;100252.94;;;17.53;100.00
61506;BME280;47366;51.916;4.574;2023-07-31T19:41:11;100247.78;;;17.50;100.00
61506;BME280;47366;51.916;4.574;2023-07-31T19:43:36;100252.38;;;17.49;100.00
61506;BME280;47366;51.916;4.574;2023-07-31T19:46:01;100250.78;;;17.47;100.00
61506;BME280;47366;51.916;4.574;2023-07-31T19:48:27;100260.28;;;17.52;100.00
61506;BME280;47366;51.916;4.574;2023-07-31T19:50:52;100247.84;;;17.40;100.00
61506;BME280;47366;51.916;4.574;2023-07-31T19:53:17;100250.25;;;17.43;100.00
61506;BME280;47366;51.916;4.574;2023-07-31T19:55:43;100248.69;;;17.40;100.00
61506;BME280;47366;51.916;4.574;2023-07-31T19:58:08;100241.25;;;17.33;100.00
61506;BME280;47366;51.916;4.574;2023-07-31T20:00:34;100260.94;;;17.36;100.00
61506;BME280;47366;51.916;4.574;2023-07-31T20:02:59;100248.56;;;17.32;100.00
61506;BME280;47366;51.916;4.574;2023-07-31T20:05:25;100242.38;;;17.30;100.00
61506;BME280;47366;51.916;4.574;2023-07-31T20:07:50;100238.97;;;17.28;100.00
61506;BME280;47366;51.916;4.574;2023-07-31T20:10:16;100236.50;;;17.25;100.00
61506;BME280;47366;51.916;4.574;2023-07-31T20:12:41;100237.41;;;17.26;100.00
61506;BME280;47366;51.916;4.574;2023-07-31T20:15:18;100243.88;;;17.25;100.00
61506;BME280;47366;51.916;4.574;2023-07-31T20:17:44;100227.03;;;17.19;100.00
61506;BME280;47366;51.916;4.574;2023-07-31T20:20:10;100230.81;;;17.18;100.00
61506;BME280;47366;51.916;4.574;2023-07-31T20:22:36;100239.56;;;17.22;100.00
61506;BME280;47366;51.916;4.574;2023-07-31T20:25:01;100230.63;;;17.20;100.00
61506;BME280;47366;51.916;4.574;2023-07-31T20:27:27;100236.50;;;17.25;100.00
61506;BME280;47366;51.916;4.574;2023-07-31T20:29:52;100221.97;;;17.25;100.00
61506;BME280;47366;51.916;4.574;2023-07-31T20:32:18;100202.41;;;17.19;100.00
61506;BME280;47366;51.916;4.574;2023-07-31T20:34:43;100205.28;;;17.18;100.00
61506;BME280;47366;51.916;4.574;2023-07-31T20:37:08;100202.09;;;17.23;100.00
61506;BME280;47366;51.916;4.574;2023-07-31T20:39:34;100187.88;;;17.19;100.00
61506;BME280;47366;51.916;4.574;2023-07-31T20:41:59;100184.56;;;17.15;100.00